sensor_id;sensor_type;location;lat;lon;timestamp;P1;durP1;ratioP1;P2;durP2;ratioP2
26600;SDS011;14241;49.260;10.496;2022-07-23T00:01:12;7.50;;;5.73;;
26600;SDS011;14241;49.260;10.496;2022-07-23T00:03:37;7.80;;;6.20;;
26600;SDS011;14241;49.260;10.496;2022-07-23T00:06:02;8.07;;;6.75;;
26600;SDS011;14241;49.260;10.496;2022-07-23T00:08:27;7.90;;;6.10;;
26600;SDS011;14241;49.260;10.496;2022-07-23T00:10:53;9.32;;;6.05;;
26600;SDS011;14241;49.260;10.496;2022-07-23T00:13:18;9.30;;;6.87;;
26600;SDS011;14241;49.260;10.496;2022-07-23T00:15:43;9.10;;;6.47;;
26600;SDS011;14241;49.260;10.496;2022-07-23T00:18:08;7.93;;;6.37;;
26600;SDS011;14241;49.260;10.496;2022-07-23T00:20:33;9.77;;;6.00;;
26600;SDS011;14241;49.260;10.496;2022-07-23T00:22:59;12.37;;;7.30;;
26600;SDS011;14241;49.260;10.496;2022-07-23T00:25:24;9.43;;;7.00;;
26600;SDS011;14241;49.260;10.496;2022-07-23T00:27:50;13.05;;;6.50;;
26600;SDS011;14241;49.260;10.496;2022-07-23T00:30:15;10.70;;;6.40;;
26600;SDS011;14241;49.260;10.496;2022-07-23T00:32:47;9.23;;;6.23;;
26600;SDS011;14241;49.260;10.496;2022-07-23T00:35:13;15.27;;;6.60;;
26600;SDS011;14241;49.260;10.496;2022-07-23T00:37:38;12.35;;;6.53;;
26600;SDS011;14241;49.260;10.496;2022-07-23T00:40:04;10.37;;;7.30;;
26600;SDS011;14241;49.260;10.496;2022-07-23T00:42:30;13.00;;;6.32;;
26600;SDS011;14241;49.260;10.496;2022-07-23T00:44:56;9.52;;;6.72;;
26600;SDS011;14241;49.260;10.496;2022-07-23T00:47:24;11.60;;;6.53;;
26600;SDS011;14241;49.260;10.496;2022-07-23T00:49:49;8.05;;;6.22;;
26600;SDS011;14241;49.260;10.496;2022-07-23T00:52:14;10.23;;;5.77;;
26600;SDS011;14241;49.260;10.496;2022-07-23T00:54:39;9.77;;;6.10;;
26600;SDS011;14241;49.260;10.496;2022-07-23T00:57:05;9.98;;;6.25;;
26600;SDS011;14241;49.260;10.496;2022-07-23T00:59:30;7.28;;;6.28;;
26600;SDS011;14241;49.260;10.496;2022-07-23T01:01:55;9.65;;;6.05;;
26600;SDS011;14241;49.260;10.496;2022-07-23T01:04:21;9.52;;;6.10;;
26600;SDS011;14241;49.260;10.496;2022-07-23T01:06:46;8.45;;;6.03;;
26600;SDS011;14241;49.260;10.496;2022-07-23T01:09:11;10.88;;;6.72;;
26600;SDS011;14241;49.260;10.496;2022-07-23T01:11:37;10.98;;;6.18;;
26600;SDS011;14241;49.260;10.496;2022-07-23T01:14:12;8.38;;;5.93;;
26600;SDS011;14241;49.260;10.496;2022-07-23T01:16:38;6.88;;;5.90;;
26600;SDS011;14241;49.260;10.496;2022-07-23T01:19:03;12.32;;;6.53;;
26600;SDS011;14241;49.260;10.496;2022-07-23T01:21:32;9.30;;;5.93;;
26600;SDS011;14241;49.260;10.496;2022-07-23T01:23:57;8.75;;;6.18;;
26600;SDS011;14241;49.260;10.496;2022-07-23T01:26:23;10.40;;;6.50;;
26600;SDS011;14241;49.260;10.496;2022-07-23T01:28:48;8.43;;;6.03;;
26600;SDS011;14241;49.260;10.496;2022-07-23T01:31:13;7.77;;;6.20;;
26600;SDS011;14241;49.260;10.496;2022-07-23T01:33:38;7.30;;;5.73;;
26600;SDS011;14241;49.260;10.496;2022-07-23T01:36:05;9.23;;;6.63;;
26600;SDS011;14241;49.260;10.496;2022-07-23T01:38:30;7.78;;;6.25;;
26600;SDS011;14241;49.260;10.496;2022-07-23T01:40:55;7.47;;;6.70;;
26600;SDS011;14241;49.260;10.496;2022-07-23T01:43:20;7.37;;;5.80;;
26600;SDS011;14241;49.260;10.496;2022-07-23T01:45:46;9.47;;;6.07;;
26600;SDS011;14241;49.260;10.496;2022-07-23T01:48:11;8.65;;;6.65;;
26600;SDS011;14241;49.260;10.496;2022-07-23T01:50:36;10.20;;;5.72;;
26600;SDS011;14241;49.260;10.496;2022-07-23T01:53:01;8.50;;;6.10;;
26600;SDS011;14241;49.260;10.496;2022-07-23T01:55:26;7.00;;;6.10;;
26600;SDS011;14241;49.260;10.496;2022-07-23T01:57:52;8.57;;;5.57;;
26600;SDS011;14241;49.260;10.496;2022-07-23T02:00:17;7.77;;;5.77;;
26600;SDS011;14241;49.260;10.496;2022-07-23T02:02:42;7.07;;;5.30;;
26600;SDS011;14241;49.260;10.496;2022-07-23T02:05:08;10.93;;;5.27;;
26600;SDS011;14241;49.260;10.496;2022-07-23T02:07:33;6.88;;;5.32;;
26600;SDS011;14241;49.260;10.496;2022-07-23T02:09:58;5.80;;;5.20;;
26600;SDS011;14241;49.260;10.496;2022-07-23T02:12:23;8.00;;;5.13;;
26600;SDS011;14241;49.260;10.496;2022-07-23T02:14:49;7.03;;;4.40;;
26600;SDS011;14241;49.260;10.496;2022-07-23T02:17:14;5.80;;;3.95;;
26600;SDS011;14241;49.260;10.496;2022-07-23T02:19:39;6.33;;;4.40;;
26600;SDS011;14241;49.260;10.496;2022-07-23T02:22:04;4.75;;;3.88;;
26600;SDS011;14241;49.260;10.496;2022-07-23T02:24:30;4.78;;;4.00;;
26600;SDS011;14241;49.260;10.496;2022-07-23T02:26:55;4.40;;;3.83;;
26600;SDS011;14241;49.260;10.496;2022-07-23T02:29:20;5.67;;;4.07;;
26600;SDS011;14241;49.260;10.496;2022-07-23T02:31:45;6.13;;;3.60;;
26600;SDS011;14241;49.260;10.496;2022-07-23T02:34:11;3.95;;;3.55;;
26600;SDS011;14241;49.260;10.496;2022-07-23T02:36:37;4.28;;;3.70;;
26600;SDS011;14241;49.260;10.496;2022-07-23T02:39:02;5.65;;;3.83;;
26600;SDS011;14241;49.260;10.496;2022-07-23T02:41:27;5.18;;;3.75;;
26600;SDS011;14241;49.260;10.496;2022-07-23T02:43:53;5.55;;;4.00;;
26600;SDS011;14241;49.260;10.496;2022-07-23T02:46:18;4.70;;;3.60;;
26600;SDS011;14241;49.260;10.496;2022-07-23T02:48:43;5.23;;;3.90;;
26600;SDS011;14241;49.260;10.496;2022-07-23T02:51:08;5.55;;;3.70;;
26600;SDS011;14241;49.260;10.496;2022-07-23T02:53:34;5.53;;;3.93;;
26600;SDS011;14241;49.260;10.496;2022-07-23T02:56:00;3.80;;;3.15;;
26600;SDS011;14241;49.260;10.496;2022-07-23T02:58:25;6.25;;;3.53;;
26600;SDS011;14241;49.260;10.496;2022-07-23T03:00:52;6.68;;;4.18;;
26600;SDS011;14241;49.260;10.496;2022-07-23T03:03:18;4.07;;;3.60;;
26600;SDS011;14241;49.260;10.496;2022-07-23T03:05:43;5.38;;;4.10;;
26600;SDS011;14241;49.260;10.496;2022-07-23T03:08:09;5.63;;;3.67;;
26600;SDS011;14241;49.260;10.496;2022-07-23T03:10:34;4.73;;;3.93;;
26600;SDS011;14241;49.260;10.496;2022-07-23T03:12:59;4.30;;;3.90;;
26600;SDS011;14241;49.260;10.496;2022-07-23T03:15:24;4.87;;;4.00;;
26600;SDS011;14241;49.260;10.496;2022-07-23T03:17:49;5.93;;;3.65;;
26600;SDS011;14241;49.260;10.496;2022-07-23T03:20:15;4.13;;;3.70;;
26600;SDS011;14241;49.260;10.496;2022-07-23T03:22:40;3.93;;;3.33;;
26600;SDS011;14241;49.260;10.496;2022-07-23T03:25:05;5.70;;;3.85;;
26600;SDS011;14241;49.260;10.496;2022-07-23T03:27:31;5.78;;;3.45;;
26600;SDS011;14241;49.260;10.496;2022-07-23T03:29:57;5.25;;;3.80;;
26600;SDS011;14241;49.260;10.496;2022-07-23T03:32:23;3.92;;;3.50;;
26600;SDS011;14241;49.260;10.496;2022-07-23T03:34:48;5.85;;;3.60;;
26600;SDS011;14241;49.260;10.496;2022-07-23T03:37:14;5.65;;;3.95;;
26600;SDS011;14241;49.260;10.496;2022-07-23T03:39:39;5.75;;;4.05;;
26600;SDS011;14241;49.260;10.496;2022-07-23T03:42:05;5.00;;;3.38;;
26600;SDS011;14241;49.260;10.496;2022-07-23T03:44:31;4.25;;;3.60;;
26600;SDS011;14241;49.260;10.496;2022-07-23T03:46:56;4.97;;;3.90;;
26600;SDS011;14241;49.260;10.496;2022-07-23T03:49:22;4.13;;;3.08;;
26600;SDS011;14241;49.260;10.496;2022-07-23T03:51:47;5.72;;;3.92;;
26600;SDS011;14241;49.260;10.496;2022-07-23T03:54:12;5.30;;;3.60;;
26600;SDS011;14241;49.260;10.496;2022-07-23T03:56:37;7.80;;;3.83;;
26600;SDS011;14241;49.260;10.496;2022-07-23T03:59:03;4.37;;;3.67;;
26600;SDS011;14241;49.260;10.496;2022-07-23T04:01:28;4.03;;;3.33;;
26600;SDS011;14241;49.260;10.496;2022-07-23T04:03:53;5.47;;;3.43;;
26600;SDS011;14241;49.260;10.496;2022-07-23T04:06:18;5.13;;;3.60;;
26600;SDS011;14241;49.260;10.496;2022-07-23T04:08:43;6.27;;;3.30;;
26600;SDS011;14241;49.260;10.496;2022-07-23T04:11:09;5.80;;;2.80;;
26600;SDS011;14241;49.260;10.496;2022-07-23T04:13:34;7.00;;;3.40;;
26600;SDS011;14241;49.260;10.496;2022-07-23T04:15:59;4.67;;;3.53;;
26600;SDS011;14241;49.260;10.496;2022-07-23T04:18:24;4.90;;;3.40;;
26600;SDS011;14241;49.260;10.496;2022-07-23T04:20:52;6.33;;;3.53;;
26600;SDS011;14241;49.260;10.496;2022-07-23T04:23:18;4.75;;;3.50;;
26600;SDS011;14241;49.260;10.496;2022-07-23T04:25:43;6.22;;;3.58;;
26600;SDS011;14241;49.260;10.496;2022-07-23T04:28:08;4.43;;;3.50;;
26600;SDS011;14241;49.260;10.496;2022-07-23T04:30:34;5.60;;;3.83;;
26600;SDS011;14241;49.260;10.496;2022-07-23T04:32:59;6.10;;;4.30;;
26600;SDS011;14241;49.260;10.496;2022-07-23T04:35:24;4.63;;;3.30;;
26600;SDS011;14241;49.260;10.496;2022-07-23T04:37:50;4.72;;;3.92;;
26600;SDS011;14241;49.260;10.496;2022-07-23T04:40:15;4.32;;;3.65;;
26600;SDS011;14241;49.260;10.496;2022-07-23T04:42:40;4.87;;;3.43;;
26600;SDS011;14241;49.260;10.496;2022-07-23T04:45:05;6.17;;;3.50;;
26600;SDS011;14241;49.260;10.496;2022-07-23T04:47:31;6.47;;;4.40;;
26600;SDS011;14241;49.260;10.496;2022-07-23T04:49:56;5.27;;;4.30;;
26600;SDS011;14241;49.260;10.496;2022-07-23T04:52:22;5.63;;;3.60;;
26600;SDS011;14241;49.260;10.496;2022-07-23T04:54:47;4.35;;;3.28;;
26600;SDS011;14241;49.260;10.496;2022-07-23T04:57:12;5.00;;;3.53;;
26600;SDS011;14241;49.260;10.496;2022-07-23T04:59:38;4.63;;;3.80;;
26600;SDS011;14241;49.260;10.496;2022-07-23T05:02:03;4.55;;;4.10;;
26600;SDS011;14241;49.260;10.496;2022-07-23T05:04:28;4.57;;;3.88;;
26600;SDS011;14241;49.260;10.496;2022-07-23T05:06:53;8.00;;;3.93;;
26600;SDS011;14241;49.260;10.496;2022-07-23T05:09:19;5.13;;;4.00;;
26600;SDS011;14241;49.260;10.496;2022-07-23T05:11:44;8.23;;;3.92;;
26600;SDS011;14241;49.260;10.496;2022-07-23T05:14:09;4.90;;;4.33;;
26600;SDS011;14241;49.260;10.496;2022-07-23T05:16:37;4.40;;;4.00;;
26600;SDS011;14241;49.260;10.496;2022-07-23T05:19:02;5.25;;;4.00;;
26600;SDS011;14241;49.260;10.496;2022-07-23T05:21:27;6.95;;;4.32;;
26600;SDS011;14241;49.260;10.496;2022-07-23T05:23:53;4.87;;;3.80;;
26600;SDS011;14241;49.260;10.496;2022-07-23T05:26:18;4.33;;;3.67;;
26600;SDS011;14241;49.260;10.496;2022-07-23T05:28:43;5.77;;;3.70;;
26600;SDS011;14241;49.260;10.496;2022-07-23T05:31:08;5.25;;;4.00;;
26600;SDS011;14241;49.260;10.496;2022-07-23T05:33:34;5.03;;;3.88;;
26600;SDS011;14241;49.260;10.496;2022-07-23T05:36:02;7.27;;;4.10;;
26600;SDS011;14241;49.260;10.496;2022-07-23T05:38:28;6.50;;;4.30;;
26600;SDS011;14241;49.260;10.496;2022-07-23T05:40:53;5.60;;;3.80;;
26600;SDS011;14241;49.260;10.496;2022-07-23T05:43:18;5.75;;;4.10;;
26600;SDS011;14241;49.260;10.496;2022-07-23T05:45:43;7.70;;;3.95;;
26600;SDS011;14241;49.260;10.496;2022-07-23T05:48:09;6.95;;;3.92;;
26600;SDS011;14241;49.260;10.496;2022-07-23T05:50:34;5.97;;;4.07;;
26600;SDS011;14241;49.260;10.496;2022-07-23T05:52:59;4.25;;;3.67;;
26600;SDS011;14241;49.260;10.496;2022-07-23T05:55:25;4.82;;;4.03;;
26600;SDS011;14241;49.260;10.496;2022-07-23T05:57:50;4.85;;;3.92;;
26600;SDS011;14241;49.260;10.496;2022-07-23T06:00:15;4.00;;;3.43;;
26600;SDS011;14241;49.260;10.496;2022-07-23T06:02:41;4.95;;;3.78;;
26600;SDS011;14241;49.260;10.496;2022-07-23T06:05:06;7.15;;;4.32;;
26600;SDS011;14241;49.260;10.496;2022-07-23T06:07:32;4.78;;;3.78;;
26600;SDS011;14241;49.260;10.496;2022-07-23T06:09:58;6.03;;;4.10;;
26600;SDS011;14241;49.260;10.496;2022-07-23T06:12:23;6.17;;;3.87;;
26600;SDS011;14241;49.260;10.496;2022-07-23T06:14:49;6.82;;;4.25;;
26600;SDS011;14241;49.260;10.496;2022-07-23T06:17:17;6.68;;;3.63;;
26600;SDS011;14241;49.260;10.496;2022-07-23T06:19:42;5.43;;;4.30;;
26600;SDS011;14241;49.260;10.496;2022-07-23T06:22:07;6.07;;;4.20;;
26600;SDS011;14241;49.260;10.496;2022-07-23T06:24:34;4.28;;;3.85;;
26600;SDS011;14241;49.260;10.496;2022-07-23T06:26:59;5.20;;;4.23;;
26600;SDS011;14241;49.260;10.496;2022-07-23T06:29:24;5.83;;;4.13;;
26600;SDS011;14241;49.260;10.496;2022-07-23T06:31:49;9.52;;;4.60;;
26600;SDS011;14241;49.260;10.496;2022-07-23T06:34:15;5.40;;;4.03;;
26600;SDS011;14241;49.260;10.496;2022-07-23T06:36:40;6.93;;;5.13;;
26600;SDS011;14241;49.260;10.496;2022-07-23T06:39:05;8.80;;;4.30;;
26600;SDS011;14241;49.260;10.496;2022-07-23T06:41:30;9.02;;;4.15;;
26600;SDS011;14241;49.260;10.496;2022-07-23T06:43:56;6.43;;;4.87;;
26600;SDS011;14241;49.260;10.496;2022-07-23T06:46:21;5.13;;;4.57;;
26600;SDS011;14241;49.260;10.496;2022-07-23T06:48:46;7.38;;;5.30;;
26600;SDS011;14241;49.260;10.496;2022-07-23T06:51:12;9.48;;;4.70;;
26600;SDS011;14241;49.260;10.496;2022-07-23T06:53:37;8.17;;;4.07;;
26600;SDS011;14241;49.260;10.496;2022-07-23T06:56:02;8.40;;;4.80;;
26600;SDS011;14241;49.260;10.496;2022-07-23T06:58:27;6.13;;;4.30;;
26600;SDS011;14241;49.260;10.496;2022-07-23T07:00:53;7.18;;;4.10;;
26600;SDS011;14241;49.260;10.496;2022-07-23T07:03:18;6.40;;;4.43;;
26600;SDS011;14241;49.260;10.496;2022-07-23T07:05:43;8.03;;;4.97;;
26600;SDS011;14241;49.260;10.496;2022-07-23T07:08:08;9.52;;;5.30;;
26600;SDS011;14241;49.260;10.496;2022-07-23T07:10:34;8.20;;;5.05;;
26600;SDS011;14241;49.260;10.496;2022-07-23T07:12:59;6.93;;;5.43;;
26600;SDS011;14241;49.260;10.496;2022-07-23T07:15:24;8.30;;;5.30;;
26600;SDS011;14241;49.260;10.496;2022-07-23T07:17:49;7.57;;;5.27;;
26600;SDS011;14241;49.260;10.496;2022-07-23T07:20:14;8.43;;;5.47;;
26600;SDS011;14241;49.260;10.496;2022-07-23T07:22:40;7.77;;;5.40;;
26600;SDS011;14241;49.260;10.496;2022-07-23T07:25:05;8.50;;;5.47;;
26600;SDS011;14241;49.260;10.496;2022-07-23T07:27:31;6.78;;;5.50;;
26600;SDS011;14241;49.260;10.496;2022-07-23T07:29:56;6.68;;;5.38;;
26600;SDS011;14241;49.260;10.496;2022-07-23T07:32:21;7.40;;;5.57;;
26600;SDS011;14241;49.260;10.496;2022-07-23T07:34:46;6.93;;;5.33;;
26600;SDS011;14241;49.260;10.496;2022-07-23T07:37:12;7.40;;;5.30;;
26600;SDS011;14241;49.260;10.496;2022-07-23T07:39:37;10.85;;;5.57;;
26600;SDS011;14241;49.260;10.496;2022-07-23T07:42:02;8.87;;;5.67;;
26600;SDS011;14241;49.260;10.496;2022-07-23T07:44:27;7.60;;;5.20;;
26600;SDS011;14241;49.260;10.496;2022-07-23T07:46:53;9.67;;;5.93;;
26600;SDS011;14241;49.260;10.496;2022-07-23T07:49:18;9.35;;;5.97;;
26600;SDS011;14241;49.260;10.496;2022-07-23T07:51:44;7.45;;;5.30;;
26600;SDS011;14241;49.260;10.496;2022-07-23T07:54:10;11.00;;;5.32;;
26600;SDS011;14241;49.260;10.496;2022-07-23T07:56:35;8.10;;;5.60;;
26600;SDS011;14241;49.260;10.496;2022-07-23T07:59:00;5.90;;;5.30;;
26600;SDS011;14241;49.260;10.496;2022-07-23T08:01:26;7.65;;;5.78;;
26600;SDS011;14241;49.260;10.496;2022-07-23T08:03:51;7.80;;;4.77;;
26600;SDS011;14241;49.260;10.496;2022-07-23T08:06:17;8.38;;;5.50;;
26600;SDS011;14241;49.260;10.496;2022-07-23T08:08:42;10.70;;;5.30;;
26600;SDS011;14241;49.260;10.496;2022-07-23T08:11:07;8.33;;;4.77;;
26600;SDS011;14241;49.260;10.496;2022-07-23T08:13:33;12.27;;;5.47;;
26600;SDS011;14241;49.260;10.496;2022-07-23T08:15:58;11.50;;;5.90;;
26600;SDS011;14241;49.260;10.496;2022-07-23T08:18:23;10.13;;;4.87;;
26600;SDS011;14241;49.260;10.496;2022-07-23T08:20:48;6.27;;;4.73;;
26600;SDS011;14241;49.260;10.496;2022-07-23T08:23:13;7.93;;;5.40;;
26600;SDS011;14241;49.260;10.496;2022-07-23T08:25:40;6.03;;;4.57;;
26600;SDS011;14241;49.260;10.496;2022-07-23T08:28:07;6.88;;;4.72;;
26600;SDS011;14241;49.260;10.496;2022-07-23T08:30:32;6.07;;;4.50;;
26600;SDS011;14241;49.260;10.496;2022-07-23T08:32:59;7.38;;;5.10;;
26600;SDS011;14241;49.260;10.496;2022-07-23T08:35:29;10.50;;;5.40;;
26600;SDS011;14241;49.260;10.496;2022-07-23T08:37:55;11.05;;;5.28;;
26600;SDS011;14241;49.260;10.496;2022-07-23T08:40:21;14.27;;;4.90;;
26600;SDS011;14241;49.260;10.496;2022-07-23T08:42:49;15.50;;;5.32;;
26600;SDS011;14241;49.260;10.496;2022-07-23T08:45:19;13.05;;;5.13;;
26600;SDS011;14241;49.260;10.496;2022-07-23T08:47:47;9.30;;;4.68;;
26600;SDS011;14241;49.260;10.496;2022-07-23T08:50:13;6.53;;;4.50;;
26600;SDS011;14241;49.260;10.496;2022-07-23T08:52:38;9.70;;;4.68;;
26600;SDS011;14241;49.260;10.496;2022-07-23T08:55:03;9.50;;;4.80;;
26600;SDS011;14241;49.260;10.496;2022-07-23T08:57:29;11.27;;;5.30;;
26600;SDS011;14241;49.260;10.496;2022-07-23T08:59:54;7.35;;;4.45;;
26600;SDS011;14241;49.260;10.496;2022-07-23T09:02:20;7.53;;;4.80;;
26600;SDS011;14241;49.260;10.496;2022-07-23T09:04:45;8.98;;;5.05;;
26600;SDS011;14241;49.260;10.496;2022-07-23T09:07:10;5.75;;;4.95;;
26600;SDS011;14241;49.260;10.496;2022-07-23T09:09:36;6.03;;;4.38;;
26600;SDS011;14241;49.260;10.496;2022-07-23T09:12:04;6.82;;;4.75;;
26600;SDS011;14241;49.260;10.496;2022-07-23T09:14:36;7.75;;;4.90;;
26600;SDS011;14241;49.260;10.496;2022-07-23T09:17:12;6.88;;;4.72;;
26600;SDS011;14241;49.260;10.496;2022-07-23T09:19:37;7.65;;;5.13;;
26600;SDS011;14241;49.260;10.496;2022-07-23T09:25:03;7.50;;;4.50;;
26600;SDS011;14241;49.260;10.496;2022-07-23T09:30:12;6.00;;;4.55;;
26600;SDS011;14241;49.260;10.496;2022-07-23T09:32:38;6.90;;;5.00;;
26600;SDS011;14241;49.260;10.496;2022-07-23T09:35:04;8.60;;;4.95;;
26600;SDS011;14241;49.260;10.496;2022-07-23T09:37:29;7.03;;;4.85;;
26600;SDS011;14241;49.260;10.496;2022-07-23T09:40:02;9.27;;;4.80;;
26600;SDS011;14241;49.260;10.496;2022-07-23T09:42:28;9.07;;;5.40;;
26600;SDS011;14241;49.260;10.496;2022-07-23T09:44:54;6.90;;;5.10;;
26600;SDS011;14241;49.260;10.496;2022-07-23T09:47:20;7.10;;;4.97;;
26600;SDS011;14241;49.260;10.496;2022-07-23T09:52:28;5.65;;;4.38;;
26600;SDS011;14241;49.260;10.496;2022-07-23T09:54:57;7.03;;;4.88;;
26600;SDS011;14241;49.260;10.496;2022-07-23T09:57:22;6.10;;;4.93;;
26600;SDS011;14241;49.260;10.496;2022-07-23T09:59:47;6.32;;;4.72;;
26600;SDS011;14241;49.260;10.496;2022-07-23T10:02:13;8.00;;;4.00;;
26600;SDS011;14241;49.260;10.496;2022-07-23T10:04:39;6.80;;;4.10;;
26600;SDS011;14241;49.260;10.496;2022-07-23T10:07:07;5.53;;;4.15;;
26600;SDS011;14241;49.260;10.496;2022-07-23T10:09:34;5.43;;;4.20;;
26600;SDS011;14241;49.260;10.496;2022-07-23T10:12:01;5.00;;;4.25;;
26600;SDS011;14241;49.260;10.496;2022-07-23T10:14:42;5.32;;;4.28;;
26600;SDS011;14241;49.260;10.496;2022-07-23T10:17:08;6.93;;;4.88;;
26600;SDS011;14241;49.260;10.496;2022-07-23T10:19:34;6.00;;;4.18;;
26600;SDS011;14241;49.260;10.496;2022-07-23T10:22:13;5.43;;;4.35;;
26600;SDS011;14241;49.260;10.496;2022-07-23T10:27:48;8.25;;;4.80;;
26600;SDS011;14241;49.260;10.496;2022-07-23T10:37:42;9.25;;;4.90;;
26600;SDS011;14241;49.260;10.496;2022-07-23T10:42:37;7.97;;;4.50;;
26600;SDS011;14241;49.260;10.496;2022-07-23T10:45:24;4.72;;;3.75;;
26600;SDS011;14241;49.260;10.496;2022-07-23T10:47:49;6.83;;;3.80;;
26600;SDS011;14241;49.260;10.496;2022-07-23T10:50:25;4.45;;;3.90;;
26600;SDS011;14241;49.260;10.496;2022-07-23T10:58:03;5.05;;;3.78;;
26600;SDS011;14241;49.260;10.496;2022-07-23T11:00:29;3.83;;;3.30;;
26600;SDS011;14241;49.260;10.496;2022-07-23T11:02:56;5.03;;;3.67;;
26600;SDS011;14241;49.260;10.496;2022-07-23T11:05:22;4.40;;;3.63;;
26600;SDS011;14241;49.260;10.496;2022-07-23T11:10:35;4.22;;;3.28;;
26600;SDS011;14241;49.260;10.496;2022-07-23T11:16:06;8.55;;;3.67;;
26600;SDS011;14241;49.260;10.496;2022-07-23T11:32:04;3.60;;;3.30;;
26600;SDS011;14241;49.260;10.496;2022-07-23T11:34:30;4.20;;;3.38;;
26600;SDS011;14241;49.260;10.496;2022-07-23T11:36:56;3.60;;;3.10;;
26600;SDS011;14241;49.260;10.496;2022-07-23T11:39:22;4.18;;;3.38;;
26600;SDS011;14241;49.260;10.496;2022-07-23T11:41:49;4.50;;;3.38;;
26600;SDS011;14241;49.260;10.496;2022-07-23T11:44:28;3.80;;;3.20;;
26600;SDS011;14241;49.260;10.496;2022-07-23T11:46:57;3.35;;;3.00;;
26600;SDS011;14241;49.260;10.496;2022-07-23T11:49:24;4.10;;;3.28;;
26600;SDS011;14241;49.260;10.496;2022-07-23T11:52:09;4.25;;;3.08;;
26600;SDS011;14241;49.260;10.496;2022-07-23T11:54:35;5.13;;;3.30;;
26600;SDS011;14241;49.260;10.496;2022-07-23T11:57:01;3.55;;;3.13;;
26600;SDS011;14241;49.260;10.496;2022-07-23T11:59:27;4.30;;;3.25;;
26600;SDS011;14241;49.260;10.496;2022-07-23T12:02:00;3.67;;;3.30;;
26600;SDS011;14241;49.260;10.496;2022-07-23T12:07:03;3.80;;;3.42;;
26600;SDS011;14241;49.260;10.496;2022-07-23T12:09:28;5.63;;;3.30;;
26600;SDS011;14241;49.260;10.496;2022-07-23T12:11:57;4.28;;;3.33;;
26600;SDS011;14241;49.260;10.496;2022-07-23T12:14:23;5.10;;;3.08;;
26600;SDS011;14241;49.260;10.496;2022-07-23T12:17:06;4.30;;;3.15;;
26600;SDS011;14241;49.260;10.496;2022-07-23T12:19:31;3.42;;;3.03;;
26600;SDS011;14241;49.260;10.496;2022-07-23T12:21:57;4.03;;;3.42;;
26600;SDS011;14241;49.260;10.496;2022-07-23T12:24:22;4.55;;;3.70;;
26600;SDS011;14241;49.260;10.496;2022-07-23T12:29:35;4.03;;;3.63;;
26600;SDS011;14241;49.260;10.496;2022-07-23T12:32:00;3.67;;;2.95;;
26600;SDS011;14241;49.260;10.496;2022-07-23T12:34:25;6.03;;;3.63;;
26600;SDS011;14241;49.260;10.496;2022-07-23T12:36:51;3.88;;;3.45;;
26600;SDS011;14241;49.260;10.496;2022-07-23T12:39:31;4.03;;;3.23;;
26600;SDS011;14241;49.260;10.496;2022-07-23T12:41:56;3.90;;;3.47;;
26600;SDS011;14241;49.260;10.496;2022-07-23T12:44:22;4.13;;;3.50;;
26600;SDS011;14241;49.260;10.496;2022-07-23T12:46:51;4.40;;;3.53;;
26600;SDS011;14241;49.260;10.496;2022-07-23T12:49:26;5.18;;;3.75;;
26600;SDS011;14241;49.260;10.496;2022-07-23T12:51:52;5.43;;;3.70;;
26600;SDS011;14241;49.260;10.496;2022-07-23T12:54:17;4.10;;;3.67;;
26600;SDS011;14241;49.260;10.496;2022-07-23T12:56:45;6.55;;;4.10;;
26600;SDS011;14241;49.260;10.496;2022-07-23T12:59:11;4.50;;;3.80;;
26600;SDS011;14241;49.260;10.496;2022-07-23T13:01:39;4.53;;;3.75;;
26600;SDS011;14241;49.260;10.496;2022-07-23T13:04:14;4.68;;;3.65;;
26600;SDS011;14241;49.260;10.496;2022-07-23T13:06:50;4.68;;;3.90;;
26600;SDS011;14241;49.260;10.496;2022-07-23T13:11:41;5.40;;;4.10;;
26600;SDS011;14241;49.260;10.496;2022-07-23T13:14:07;5.78;;;4.18;;
26600;SDS011;14241;49.260;10.496;2022-07-23T13:16:32;4.90;;;4.13;;
26600;SDS011;14241;49.260;10.496;2022-07-23T13:18:58;4.47;;;4.05;;
26600;SDS011;14241;49.260;10.496;2022-07-23T13:21:23;4.10;;;3.67;;
26600;SDS011;14241;49.260;10.496;2022-07-23T13:23:49;6.83;;;4.47;;
26600;SDS011;14241;49.260;10.496;2022-07-23T13:26:14;5.13;;;4.63;;
26600;SDS011;14241;49.260;10.496;2022-07-23T13:28:39;6.25;;;4.32;;
26600;SDS011;14241;49.260;10.496;2022-07-23T13:31:05;5.00;;;4.50;;
26600;SDS011;14241;49.260;10.496;2022-07-23T13:33:30;5.50;;;4.70;;
26600;SDS011;14241;49.260;10.496;2022-07-23T13:35:55;6.00;;;4.77;;
26600;SDS011;14241;49.260;10.496;2022-07-23T13:38:21;6.43;;;3.97;;
26600;SDS011;14241;49.260;10.496;2022-07-23T13:40:47;5.25;;;4.75;;
26600;SDS011;14241;49.260;10.496;2022-07-23T13:43:14;5.63;;;4.47;;
26600;SDS011;14241;49.260;10.496;2022-07-23T13:45:40;4.25;;;3.85;;
26600;SDS011;14241;49.260;10.496;2022-07-23T13:48:07;6.20;;;4.43;;
26600;SDS011;14241;49.260;10.496;2022-07-23T13:50:33;5.03;;;4.47;;
26600;SDS011;14241;49.260;10.496;2022-07-23T13:53:05;6.97;;;4.38;;
26600;SDS011;14241;49.260;10.496;2022-07-23T13:55:31;4.80;;;4.20;;
26600;SDS011;14241;49.260;10.496;2022-07-23T13:57:57;5.00;;;4.32;;
26600;SDS011;14241;49.260;10.496;2022-07-23T14:00:22;5.15;;;4.32;;
26600;SDS011;14241;49.260;10.496;2022-07-23T14:02:48;6.30;;;4.50;;
26600;SDS011;14241;49.260;10.496;2022-07-23T14:05:13;5.53;;;4.67;;
26600;SDS011;14241;49.260;10.496;2022-07-23T14:07:38;7.55;;;4.45;;
26600;SDS011;14241;49.260;10.496;2022-07-23T14:10:05;7.20;;;4.78;;
26600;SDS011;14241;49.260;10.496;2022-07-23T14:12:31;8.93;;;5.47;;
26600;SDS011;14241;49.260;10.496;2022-07-23T14:14:56;4.97;;;4.47;;
26600;SDS011;14241;49.260;10.496;2022-07-23T14:17:21;6.35;;;4.80;;
26600;SDS011;14241;49.260;10.496;2022-07-23T14:19:47;6.85;;;4.75;;
26600;SDS011;14241;49.260;10.496;2022-07-23T14:22:12;7.45;;;4.55;;
26600;SDS011;14241;49.260;10.496;2022-07-23T14:24:38;6.63;;;4.90;;
26600;SDS011;14241;49.260;10.496;2022-07-23T14:27:03;6.00;;;4.88;;
26600;SDS011;14241;49.260;10.496;2022-07-23T14:29:29;5.93;;;4.68;;
26600;SDS011;14241;49.260;10.496;2022-07-23T14:31:55;6.53;;;4.80;;
26600;SDS011;14241;49.260;10.496;2022-07-23T14:34:20;7.80;;;4.82;;
26600;SDS011;14241;49.260;10.496;2022-07-23T14:36:45;6.87;;;5.03;;
26600;SDS011;14241;49.260;10.496;2022-07-23T14:39:10;6.85;;;5.35;;
26600;SDS011;14241;49.260;10.496;2022-07-23T14:41:37;5.53;;;4.97;;
26600;SDS011;14241;49.260;10.496;2022-07-23T14:44:02;10.13;;;5.60;;
26600;SDS011;14241;49.260;10.496;2022-07-23T14:46:28;5.65;;;4.97;;
26600;SDS011;14241;49.260;10.496;2022-07-23T14:48:53;5.65;;;4.82;;
26600;SDS011;14241;49.260;10.496;2022-07-23T14:51:18;6.30;;;5.50;;
26600;SDS011;14241;49.260;10.496;2022-07-23T14:53:43;6.50;;;5.33;;
26600;SDS011;14241;49.260;10.496;2022-07-23T14:56:09;5.53;;;5.03;;
26600;SDS011;14241;49.260;10.496;2022-07-23T14:58:34;5.93;;;4.80;;
26600;SDS011;14241;49.260;10.496;2022-07-23T15:00:59;5.03;;;4.37;;
26600;SDS011;14241;49.260;10.496;2022-07-23T15:03:24;5.40;;;4.60;;
26600;SDS011;14241;49.260;10.496;2022-07-23T15:05:50;7.87;;;4.93;;
26600;SDS011;14241;49.260;10.496;2022-07-23T15:08:15;5.45;;;4.20;;
26600;SDS011;14241;49.260;10.496;2022-07-23T15:10:42;7.30;;;4.97;;
26600;SDS011;14241;49.260;10.496;2022-07-23T15:13:07;5.88;;;4.90;;
26600;SDS011;14241;49.260;10.496;2022-07-23T15:15:32;6.60;;;5.10;;
26600;SDS011;14241;49.260;10.496;2022-07-23T15:17:58;8.67;;;5.07;;
26600;SDS011;14241;49.260;10.496;2022-07-23T15:20:23;6.55;;;4.50;;